Time,TemperatureF,DewpointF,PressureIn,WindDirection,WindDirectionDegrees,WindSpeedMPH,WindSpeedGustMPH,Humidity,HourlyPrecipIn,Conditions,Clouds,dailyrainin,SoftwareType,DateUTC
2013-05-27 00:00:00,66.9,58.7,30.06,SE,132,1.0,1.0,75,0.00,,,0.00,Wunderground v.1.15,2013-05-27 05:00:00,
2013-05-27 00:06:00,66.9,58.7,30.05,East,96,1.0,3.0,75,0.00,,,0.00,Wunderground v.1.15,2013-05-27 05:06:00,
2013-05-27 00:11:00,67.0,58.8,30.05,SSE,162,1.0,1.0,75,0.00,,,0.00,Wunderground v.1.15,2013-05-27 05:11:00,
2013-05-27 00:16:00,66.9,58.7,30.05,East,83,1.0,2.0,75,0.00,,,0.00,Wunderground v.1.15,2013-05-27 05:16:00,
2013-05-27 00:21:00,66.8,59.0,30.05,ESE,114,0.0,0.0,76,0.00,,,0.00,Wunderground v.1.15,2013-05-27 05:21:00,
2013-05-27 00:26:00,66.7,58.9,30.05,East,98,0.0,2.0,76,0.00,,,0.00,Wunderground v.1.15,2013-05-27 05:26:00,
2013-05-27 00:32:00,66.7,58.9,30.05,ESE,116,1.0,2.0,76,0.00,,,0.00,Wunderground v.1.15,2013-05-27 05:32:00,
2013-05-27 00:37:00,66.8,59.0,30.05,NE,40,1.0,2.0,76,0.00,,,0.00,Wunderground v.1.15,2013-05-27 05:37:00,
2013-05-27 00:42:00,66.8,59.0,30.04,East,97,1.0,2.0,76,0.00,,,0.00,Wunderground v.1.15,2013-05-27 05:42:00,
2013-05-27 00:47:00,66.8,59.0,30.04,ESE,116,1.0,4.0,76,0.00,,,0.00,Wunderground v.1.15,2013-05-27 05:47:00,
2013-05-27 00:52:00,66.8,59.0,30.04,SE,131,2.0,2.0,76,0.00,,,0.00,Wunderground v.1.15,2013-05-27 05:52:00,
2013-05-27 00:57:00,66.7,58.9,30.04,ESE,120,2.0,2.0,76,0.00,,,0.00,Wunderground v.1.15,2013-05-27 05:57:00,
2013-05-27 01:03:00,66.5,58.7,30.04,ESE,113,1.0,2.0,76,0.00,,,0.00,Wunderground v.1.15,2013-05-27 06:03:00,
2013-05-27 01:08:00,66.4,58.6,30.04,ENE,71,1.0,3.0,76,0.00,,,0.00,Wunderground v.1.15,2013-05-27 06:08:00,
2013-05-27 01:14:00,66.3,58.9,30.04,East,80,1.0,2.0,77,0.00,,,0.00,Wunderground v.1.15,2013-05-27 06:14:00,
2013-05-27 01:19:00,66.2,58.8,30.04,ESE,103,0.0,2.0,77,0.00,,,0.00,Wunderground v.1.15,2013-05-27 06:19:00,
2013-05-27 01:24:00,66.0,58.6,30.04,ESE,103,0.0,0.0,77,0.00,,,0.00,Wunderground v.1.15,2013-05-27 06:24:00,
2013-05-27 01:29:00,65.8,58.7,30.04,NE,38,0.0,0.0,78,0.00,,,0.00,Wunderground v.1.15,2013-05-27 06:29:00,
2013-05-27 01:34:00,65.5,58.5,30.04,ESE,114,0.0,0.0,78,0.00,,,0.00,Wunderground v.1.15,2013-05-27 06:34:00,
2013-05-27 01:39:00,65.5,58.5,30.04,NNE,18,0.0,0.0,78,0.00,,,0.00,Wunderground v.1.15,2013-05-27 06:39:00,
2013-05-27 01:44:00,65.6,58.6,30.04,SSE,155,0.0,0.0,78,0.00,,,0.00,Wunderground v.1.15,2013-05-27 06:44:00,
2013-05-27 01:50:00,65.8,58.7,30.03,NE,41,0.0,0.0,78,0.00,,,0.00,Wunderground v.1.15,2013-05-27 06:50:00,
2013-05-27 01:55:00,65.8,58.7,30.03,SE,133,0.0,0.0,78,0.00,,,0.00,Wunderground v.1.15,2013-05-27 06:55:00,
2013-05-27 02:00:00,65.7,58.7,30.03,ESE,103,0.0,0.0,78,0.00,,,0.00,Wunderground v.1.15,2013-05-27 07:00:00,
2013-05-27 02:06:00,65.6,58.6,30.03,SE,144,0.0,1.0,78,0.00,,,0.00,Wunderground v.1.15,2013-05-27 07:06:00,
2013-05-27 02:11:00,65.5,58.5,30.03,NE,49,0.0,0.0,78,0.00,,,0.00,Wunderground v.1.15,2013-05-27 07:11:00,
2013-05-27 02:17:00,65.4,58.4,30.02,ENE,78,0.0,0.0,78,0.00,,,0.00,Wunderground v.1.15,2013-05-27 07:17:00,
2013-05-27 02:22:00,65.2,58.5,30.02,ESE,112,0.0,0.0,79,0.00,,,0.00,Wunderground v.1.15,2013-05-27 07:22:00,
2013-05-27 02:27:00,65.0,58.3,30.02,ESE,102,0.0,0.0,79,0.00,,,0.00,Wunderground v.1.15,2013-05-27 07:27:00,
2013-05-27 02:32:00,64.9,58.6,30.02,ESE,108,0.0,1.0,80,0.00,,,0.00,Wunderground v.1.15,2013-05-27 07:32:00,
2013-05-27 02:37:00,64.9,58.6,30.02,ESE,110,0.0,1.0,80,0.00,,,0.00,Wunderground v.1.15,2013-05-27 07:37:00,
2013-05-27 02:42:00,64.7,58.4,30.02,ESE,108,0.0,0.0,80,0.00,,,0.00,Wunderground v.1.15,2013-05-27 07:42:00,
2013-05-27 02:47:00,64.6,58.3,30.02,ENE,70,0.0,1.0,80,0.00,,,0.00,Wunderground v.1.15,2013-05-27 07:47:00,
2013-05-27 02:52:00,64.4,58.4,30.02,North,351,0.0,0.0,81,0.00,,,0.00,Wunderground v.1.15,2013-05-27 07:52:00,
2013-05-27 02:58:00,64.2,58.2,30.02,ESE,105,0.0,0.0,81,0.00,,,0.00,Wunderground v.1.15,2013-05-27 07:58:00,
2013-05-27 03:03:00,63.9,58.3,30.02,ESE,105,0.0,0.0,82,0.00,,,0.00,Wunderground v.1.15,2013-05-27 08:03:00,
2013-05-27 03:09:00,63.4,58.1,30.02,East,101,0.0,0.0,83,0.00,,,0.00,Wunderground v.1.15,2013-05-27 08:09:00,
2013-05-27 03:15:00,63.0,58.1,30.02,SE,133,0.0,0.0,84,0.00,,,0.00,Wunderground v.1.15,2013-05-27 08:15:00,
2013-05-27 03:20:00,62.9,58.0,30.02,SE,132,0.0,0.0,84,0.00,,,0.00,Wunderground v.1.15,2013-05-27 08:20:00,
2013-05-27 03:25:00,62.9,58.0,30.02,SE,133,0.0,0.0,84,0.00,,,0.00,Wunderground v.1.15,2013-05-27 08:25:00,
2013-05-27 03:30:00,62.8,57.9,30.02,SE,134,0.0,0.0,84,0.00,,,0.00,Wunderground v.1.15,2013-05-27 08:30:00,
2013-05-27 03:36:00,62.7,58.1,30.02,East,97,0.0,0.0,85,0.00,,,0.00,Wunderground v.1.15,2013-05-27 08:36:00,
2013-05-27 03:41:00,62.7,58.1,30.02,ESE,112,0.0,0.0,85,0.00,,,0.00,Wunderground v.1.15,2013-05-27 08:41:00,
2013-05-27 03:46:00,62.5,58.3,30.02,ESE,110,0.0,0.0,86,0.00,,,0.00,Wunderground v.1.15,2013-05-27 08:46:00,
2013-05-27 03:51:00,62.3,58.1,30.02,ESE,108,0.0,0.0,86,0.00,,,0.00,Wunderground v.1.15,2013-05-27 08:51:00,
2013-05-27 03:56:00,62.3,58.4,30.02,East,94,0.0,0.0,87,0.00,,,0.00,Wunderground v.1.15,2013-05-27 08:56:00,
2013-05-27 04:02:00,62.4,58.5,30.02,East,96,0.0,0.0,87,0.00,,,0.00,Wunderground v.1.15,2013-05-27 09:02:00,
2013-05-27 04:07:00,62.1,58.2,30.02,East,96,0.0,0.0,87,0.00,,,0.00,Wunderground v.1.15,2013-05-27 09:07:00,
2013-05-27 04:12:00,61.9,58.3,30.03,East,85,0.0,0.0,88,0.00,,,0.00,Wunderground v.1.15,2013-05-27 09:12:00,
2013-05-27 04:18:00,61.8,58.2,30.03,East,85,0.0,0.0,88,0.00,,,0.00,Wunderground v.1.15,2013-05-27 09:18:00,
2013-05-27 04:23:00,61.6,58.0,30.03,East,85,0.0,0.0,88,0.00,,,0.00,Wunderground v.1.15,2013-05-27 09:23:00,
2013-05-27 04:28:00,61.3,58.0,30.03,East,85,0.0,0.0,89,0.00,,,0.00,Wunderground v.1.15,2013-05-27 09:28:00,
2013-05-27 04:33:00,61.1,57.8,30.03,East,85,0.0,0.0,89,0.00,,,0.00,Wunderground v.1.15,2013-05-27 09:33:00,
2013-05-27 04:38:00,60.9,57.9,30.03,East,85,0.0,0.0,90,0.00,,,0.00,Wunderground v.1.15,2013-05-27 09:38:00,
2013-05-27 04:44:00,60.6,57.7,30.03,East,85,0.0,0.0,90,0.00,,,0.00,Wunderground v.1.15,2013-05-27 09:44:00,
2013-05-27 04:49:00,60.4,57.8,30.03,East,84,0.0,0.0,91,0.00,,,0.00,Wunderground v.1.15,2013-05-27 09:49:00,
2013-05-27 04:54:00,60.1,57.5,30.03,East,85,0.0,0.0,91,0.00,,,0.00,Wunderground v.1.15,2013-05-27 09:54:00,
2013-05-27 05:00:00,60.1,57.8,30.03,East,85,0.0,0.0,92,0.00,,,0.00,Wunderground v.1.15,2013-05-27 10:00:00,
2013-05-27 05:06:00,60.0,57.7,30.03,East,85,0.0,0.0,92,0.00,,,0.00,Wunderground v.1.15,2013-05-27 10:06:00,
2013-05-27 05:11:00,60.0,57.7,30.03,East,85,0.0,0.0,92,0.00,,,0.00,Wunderground v.1.15,2013-05-27 10:11:00,
2013-05-27 05:16:00,60.0,57.7,30.03,East,85,0.0,0.0,92,0.00,,,0.00,Wunderground v.1.15,2013-05-27 10:16:00,
2013-05-27 05:21:00,60.1,58.1,30.03,East,85,0.0,0.0,93,0.00,,,0.00,Wunderground v.1.15,2013-05-27 10:21:00,
2013-05-27 05:26:00,60.1,58.1,30.02,East,85,0.0,0.0,93,0.00,,,0.00,Wunderground v.1.15,2013-05-27 10:26:00,
2013-05-27 05:32:00,60.1,58.1,30.03,SE,131,0.0,0.0,93,0.00,,,0.00,Wunderground v.1.15,2013-05-27 10:32:00,
2013-05-27 05:37:00,60.0,58.0,30.03,ESE,112,0.0,0.0,93,0.00,,,0.00,Wunderground v.1.15,2013-05-27 10:37:00,
2013-05-27 05:42:00,60.0,58.0,30.02,ESE,111,0.0,0.0,93,0.00,,,0.00,Wunderground v.1.15,2013-05-27 10:42:00,
2013-05-27 05:47:00,60.1,58.1,30.02,ESE,112,0.0,0.0,93,0.00,,,0.00,Wunderground v.1.15,2013-05-27 10:47:00,
2013-05-27 05:53:00,60.3,58.3,30.02,ESE,123,0.0,0.0,93,0.00,,,0.00,Wunderground v.1.15,2013-05-27 10:53:00,
2013-05-27 05:58:00,60.4,58.4,30.02,East,87,0.0,0.0,93,0.00,,,0.00,Wunderground v.1.15,2013-05-27 10:58:00,
2013-05-27 06:04:00,60.6,58.6,30.02,SE,136,0.0,0.0,93,0.00,,,0.00,Wunderground v.1.15,2013-05-27 11:04:00,
2013-05-27 06:09:00,60.9,58.9,30.02,SSE,152,0.0,0.0,93,0.00,,,0.00,Wunderground v.1.15,2013-05-27 11:09:00,
2013-05-27 06:14:00,61.4,59.4,30.02,SSE,162,0.0,0.0,93,0.00,,,0.00,Wunderground v.1.15,2013-05-27 11:14:00,
2013-05-27 06:20:00,62.1,59.7,30.02,ESE,113,0.0,0.0,92,0.00,,,0.00,Wunderground v.1.15,2013-05-27 11:20:00,
2013-05-27 06:25:00,62.6,59.9,30.01,ESE,103,0.0,0.0,91,0.00,,,0.00,Wunderground v.1.15,2013-05-27 11:25:00,
2013-05-27 06:30:00,63.3,60.3,30.01,ENE,70,0.0,2.0,90,0.00,,,0.00,Wunderground v.1.15,2013-05-27 11:30:00,
2013-05-27 06:35:00,63.8,60.2,30.01,West,270,0.0,2.0,88,0.00,,,0.00,Wunderground v.1.15,2013-05-27 11:35:00,
2013-05-27 06:41:00,64.3,60.3,30.01,West,263,0.0,1.0,87,0.00,,,0.00,Wunderground v.1.15,2013-05-27 11:41:00,
2013-05-27 06:46:00,65.0,60.7,30.01,SSW,195,1.0,3.0,86,0.00,,,0.00,Wunderground v.1.15,2013-05-27 11:46:00,
2013-05-27 06:51:00,65.9,60.9,30.00,NE,49,1.0,1.0,84,0.00,,,0.00,Wunderground v.1.15,2013-05-27 11:51:00,
2013-05-27 06:56:00,66.7,61.4,30.00,East,91,0.0,1.0,83,0.00,,,0.00,Wunderground v.1.15,2013-05-27 11:56:00,
2013-05-27 07:02:00,67.4,61.4,29.99,WSW,257,0.0,0.0,81,0.00,,,0.00,Wunderground v.1.15,2013-05-27 12:02:00,
2013-05-27 07:08:00,68.1,61.7,29.99,East,80,0.0,0.0,80,0.00,,,0.00,Wunderground v.1.15,2013-05-27 12:08:00,
2013-05-27 07:13:00,69.0,61.9,29.99,ESE,107,0.0,8.0,78,0.00,,,0.00,Wunderground v.1.15,2013-05-27 12:13:00,
2013-05-27 07:18:00,69.3,61.4,29.98,South,176,1.0,8.0,76,0.00,,,0.00,Wunderground v.1.15,2013-05-27 12:18:00,
2013-05-27 07:23:00,69.8,61.1,29.99,SE,128,1.0,6.0,74,0.00,,,0.00,Wunderground v.1.15,2013-05-27 12:23:00,
2013-05-27 07:28:00,70.0,61.7,29.99,SSE,162,1.0,7.0,75,0.00,,,0.00,Wunderground v.1.15,2013-05-27 12:28:00,
2013-05-27 07:34:00,70.5,61.0,29.98,SW,217,2.0,6.0,72,0.00,,,0.00,Wunderground v.1.15,2013-05-27 12:34:00,
2013-05-27 07:39:00,70.8,61.7,29.99,ENE,63,3.0,6.0,73,0.00,,,0.00,Wunderground v.1.15,2013-05-27 12:39:00,
2013-05-27 07:44:00,70.8,61.7,29.99,West,269,3.0,6.0,73,0.00,,,0.00,Wunderground v.1.15,2013-05-27 12:44:00,
2013-05-27 07:49:00,70.7,61.2,29.98,NW,308,2.0,6.0,72,0.00,,,0.00,Wunderground v.1.15,2013-05-27 12:49:00,
2013-05-27 07:55:00,70.5,61.8,29.98,SSW,192,3.0,6.0,74,0.00,,,0.00,Wunderground v.1.15,2013-05-27 12:55:00,
2013-05-27 08:00:00,70.5,61.8,29.98,ESE,120,2.0,2.0,74,0.00,,,0.00,Wunderground v.1.15,2013-05-27 13:00:00,
2013-05-27 08:06:00,71.1,62.4,29.98,West,271,2.0,6.0,74,0.00,,,0.00,Wunderground v.1.15,2013-05-27 13:06:00,
2013-05-27 08:11:00,71.6,62.5,29.99,SSE,166,2.0,4.0,73,0.00,,,0.00,Wunderground v.1.15,2013-05-27 13:11:00,
2013-05-27 08:16:00,72.1,62.6,29.99,NE,37,2.0,7.0,72,0.00,,,0.00,Wunderground v.1.15,2013-05-27 13:16:00,
2013-05-27 08:21:00,72.6,63.1,29.98,SSE,167,3.0,3.0,72,0.00,,,0.00,Wunderground v.1.15,2013-05-27 13:21:00,
2013-05-27 08:26:00,73.0,62.6,29.99,NNE,26,2.0,5.0,70,0.00,,,0.00,Wunderground v.1.15,2013-05-27 13:26:00,
2013-05-27 08:32:00,73.6,63.2,29.99,WSW,239,2.0,7.0,70,0.00,,,0.00,Wunderground v.1.15,2013-05-27 13:32:00,
2013-05-27 08:37:00,73.9,63.5,29.99,WNW,291,2.0,7.0,70,0.00,,,0.00,Wunderground v.1.15,2013-05-27 13:37:00,
2013-05-27 08:42:00,74.1,63.7,29.99,SSE,157,3.0,3.0,70,0.00,,,0.00,Wunderground v.1.15,2013-05-27 13:42:00,
2013-05-27 08:47:00,74.5,64.1,29.99,WSW,242,3.0,6.0,70,0.00,,,0.00,Wunderground v.1.15,2013-05-27 13:47:00,
2013-05-27 08:52:00,74.9,64.5,29.99,SSW,210,3.0,4.0,70,0.00,,,0.00,Wunderground v.1.15,2013-05-27 13:52:00,
2013-05-27 08:57:00,75.3,64.0,29.99,SW,217,3.0,6.0,68,0.00,,,0.00,Wunderground v.1.15,2013-05-27 13:57:00,
2013-05-27 09:03:00,75.9,64.6,29.99,SE,129,4.0,10.0,68,0.00,,,0.00,Wunderground v.1.15,2013-05-27 14:03:00,
2013-05-27 09:09:00,76.2,65.3,29.99,South,178,4.0,10.0,69,0.00,,,0.00,Wunderground v.1.15,2013-05-27 14:09:00,
2013-05-27 09:14:00,76.3,65.0,29.99,WSW,252,4.0,8.0,68,0.00,,,0.00,Wunderground v.1.15,2013-05-27 14:14:00,
2013-05-27 09:19:00,76.3,65.0,29.99,SSE,168,3.0,8.0,68,0.00,,,0.00,Wunderground v.1.15,2013-05-27 14:19:00,
2013-05-27 09:24:00,76.1,64.8,29.99,West,268,4.0,8.0,68,0.00,,,0.00,Wunderground v.1.15,2013-05-27 14:24:00,
2013-05-27 09:30:00,75.9,65.0,29.99,SSW,203,4.0,4.0,69,0.00,,,0.00,Wunderground v.1.15,2013-05-27 14:30:00,
2013-05-27 09:35:00,75.9,65.4,29.99,West,267,3.0,7.0,70,0.00,,,0.00,Wunderground v.1.15,2013-05-27 14:35:00,
2013-05-27 09:40:00,76.1,65.6,29.99,WSW,256,3.0,3.0,70,0.00,,,0.00,Wunderground v.1.15,2013-05-27 14:40:00,
2013-05-27 09:45:00,76.3,65.4,29.99,WSW,248,3.0,9.0,69,0.00,,,0.00,Wunderground v.1.15,2013-05-27 14:45:00,
2013-05-27 09:50:00,76.9,65.5,29.98,WSW,240,4.0,4.0,68,0.00,,,0.00,Wunderground v.1.15,2013-05-27 14:50:00,
2013-05-27 09:55:00,77.5,65.7,29.98,NW,309,4.0,6.0,67,0.00,,,0.00,Wunderground v.1.15,2013-05-27 14:55:00,
2013-05-27 10:00:00,77.8,66.4,29.98,SW,233,5.0,5.0,68,0.00,,,0.00,Wunderground v.1.15,2013-05-27 15:00:00,
2013-05-27 10:06:00,77.7,66.3,29.98,West,274,5.0,11.0,68,0.00,,,0.00,Wunderground v.1.15,2013-05-27 15:06:00,
2013-05-27 10:11:00,77.8,66.4,29.99,WNW,300,5.0,9.0,68,0.00,,,0.00,Wunderground v.1.15,2013-05-27 15:11:00,
2013-05-27 10:16:00,78.2,66.8,29.98,WSW,239,5.0,9.0,68,0.00,,,0.00,Wunderground v.1.15,2013-05-27 15:16:00,
2013-05-27 10:22:00,78.8,66.9,29.99,SW,214,5.0,5.0,67,0.00,,,0.00,Wunderground v.1.15,2013-05-27 15:22:00,
2013-05-27 10:27:00,79.5,68.0,29.98,SSW,204,5.0,6.0,68,0.00,,,0.00,Wunderground v.1.15,2013-05-27 15:27:00,
2013-05-27 10:32:00,79.8,67.4,29.98,SSE,152,5.0,8.0,66,0.00,,,0.00,Wunderground v.1.15,2013-05-27 15:32:00,
2013-05-27 10:37:00,79.7,67.8,29.98,West,266,5.0,9.0,67,0.00,,,0.00,Wunderground v.1.15,2013-05-27 15:37:00,
2013-05-27 10:43:00,80.0,68.1,29.98,SSW,211,5.0,6.0,67,0.00,,,0.00,Wunderground v.1.15,2013-05-27 15:43:00,
2013-05-27 10:48:00,80.3,67.5,29.98,West,262,5.0,6.0,65,0.00,,,0.00,Wunderground v.1.15,2013-05-27 15:48:00,
2013-05-27 10:53:00,80.2,67.4,29.98,WNW,297,4.0,6.0,65,0.00,,,0.00,Wunderground v.1.15,2013-05-27 15:53:00,
2013-05-27 10:58:00,80.2,67.4,29.97,WSW,255,5.0,11.0,65,0.00,,,0.00,Wunderground v.1.15,2013-05-27 15:58:00,
2013-05-27 11:04:00,80.7,67.4,29.97,SW,221,5.0,9.0,64,0.00,,,0.00,Wunderground v.1.15,2013-05-27 16:04:00,
2013-05-27 11:09:00,81.0,67.7,29.97,SW,214,5.0,9.0,64,0.00,,,0.00,Wunderground v.1.15,2013-05-27 16:09:00,
2013-05-27 11:14:00,81.5,67.7,29.97,WNW,284,5.0,7.0,63,0.00,,,0.00,Wunderground v.1.15,2013-05-27 16:14:00,
2013-05-27 11:20:00,82.0,68.2,29.97,WSW,245,5.0,14.0,63,0.00,,,0.00,Wunderground v.1.15,2013-05-27 16:20:00,
2013-05-27 11:25:00,82.1,67.3,29.96,West,281,5.0,14.0,61,0.00,,,0.00,Wunderground v.1.15,2013-05-27 16:25:00,
2013-05-27 11:30:00,82.0,67.2,29.96,WSW,238,6.0,6.0,61,0.00,,,0.00,Wunderground v.1.15,2013-05-27 16:30:00,
2013-05-27 11:35:00,82.2,66.9,29.96,SSW,198,6.0,9.0,60,0.00,,,0.00,Wunderground v.1.15,2013-05-27 16:35:00,
2013-05-27 11:41:00,82.3,67.5,29.95,SW,222,6.0,8.0,61,0.00,,,0.00,Wunderground v.1.15,2013-05-27 16:41:00,
2013-05-27 11:46:00,82.6,67.8,29.95,SSW,200,6.0,8.0,61,0.00,,,0.00,Wunderground v.1.15,2013-05-27 16:46:00,
2013-05-27 11:51:00,82.9,67.6,29.94,WNW,293,4.0,10.0,60,0.00,,,0.00,Wunderground v.1.15,2013-05-27 16:51:00,
2013-05-27 11:56:00,83.2,67.4,29.94,SW,226,5.0,10.0,59,0.00,,,0.00,Wunderground v.1.15,2013-05-27 16:56:00,
2013-05-27 12:02:00,83.1,66.8,29.94,West,272,6.0,6.0,58,0.00,,,0.00,Wunderground v.1.15,2013-05-27 17:02:00,
2013-05-27 12:07:00,83.0,67.2,29.94,WSW,253,6.0,12.0,59,0.00,,,0.00,Wunderground v.1.15,2013-05-27 17:07:00,
2013-05-27 12:12:00,83.4,67.1,29.93,SSW,199,6.0,11.0,58,0.00,,,0.00,Wunderground v.1.15,2013-05-27 17:12:00,
2013-05-27 12:18:00,83.5,66.7,29.93,South,181,6.0,11.0,57,0.00,,,0.00,Wunderground v.1.15,2013-05-27 17:18:00,
2013-05-27 12:23:00,83.4,67.6,29.93,South,183,7.0,8.0,59,0.00,,,0.00,Wunderground v.1.15,2013-05-27 17:23:00,
2013-05-27 12:28:00,83.6,67.3,29.93,West,275,7.0,9.0,58,0.00,,,0.00,Wunderground v.1.15,2013-05-27 17:28:00,
2013-05-27 12:33:00,83.8,69.4,29.94,WSW,250,6.0,7.0,62,0.00,,,0.00,Wunderground v.1.15,2013-05-27 17:33:00,
2013-05-27 12:38:00,84.3,68.4,29.94,South,186,5.0,9.0,59,0.00,,,0.00,Wunderground v.1.15,2013-05-27 17:38:00,
2013-05-27 12:44:00,84.1,68.2,29.94,South,181,6.0,9.0,59,0.00,,,0.00,Wunderground v.1.15,2013-05-27 17:44:00,
2013-05-27 12:49:00,83.8,67.4,29.94,WSW,250,5.0,9.0,58,0.00,,,0.00,Wunderground v.1.15,2013-05-27 17:49:00,
2013-05-27 12:54:00,84.2,68.3,29.94,West,271,5.0,12.0,59,0.00,,,0.00,Wunderground v.1.15,2013-05-27 17:54:00,
2013-05-27 13:00:00,84.3,67.4,29.94,WSW,245,5.0,5.0,57,0.00,,,0.00,Wunderground v.1.15,2013-05-27 18:00:00,
2013-05-27 13:06:00,84.2,67.8,29.94,West,265,4.0,8.0,58,0.00,,,0.00,Wunderground v.1.15,2013-05-27 18:06:00,
2013-05-27 13:11:00,84.1,66.7,29.94,WSW,256,6.0,6.0,56,0.00,,,0.00,Wunderground v.1.15,2013-05-27 18:11:00,
2013-05-27 13:16:00,84.2,68.3,29.94,SE,146,7.0,11.0,59,0.00,,,0.00,Wunderground v.1.15,2013-05-27 18:16:00,
2013-05-27 13:21:00,84.5,67.6,29.94,West,263,6.0,7.0,57,0.00,,,0.00,Wunderground v.1.15,2013-05-27 18:21:00,
2013-05-27 13:26:00,84.5,66.6,29.94,SSW,197,5.0,12.0,55,0.00,,,0.00,Wunderground v.1.15,2013-05-27 18:26:00,
2013-05-27 13:32:00,84.3,66.9,29.94,WNW,287,6.0,13.0,56,0.00,,,0.00,Wunderground v.1.15,2013-05-27 18:32:00,
2013-05-27 13:37:00,84.4,67.0,29.94,West,276,7.0,13.0,56,0.00,,,0.00,Wunderground v.1.15,2013-05-27 18:37:00,
2013-05-27 13:42:00,84.3,66.4,29.94,SW,236,6.0,8.0,55,0.00,,,0.00,Wunderground v.1.15,2013-05-27 18:42:00,
2013-05-27 13:47:00,84.4,65.9,29.94,SSE,167,6.0,8.0,54,0.00,,,0.00,Wunderground v.1.15,2013-05-27 18:47:00,
2013-05-27 13:53:00,84.2,66.3,29.94,SSE,150,4.0,6.0,55,0.00,,,0.00,Wunderground v.1.15,2013-05-27 18:53:00,
2013-05-27 13:58:00,84.7,66.7,29.94,ESE,105,5.0,10.0,55,0.00,,,0.00,Wunderground v.1.15,2013-05-27 18:58:00,
2013-05-27 14:03:00,84.7,66.2,29.94,SW,224,7.0,9.0,54,0.00,,,0.00,Wunderground v.1.15,2013-05-27 19:03:00,
2013-05-27 14:09:00,84.8,67.4,29.94,WSW,243,7.0,11.0,56,0.00,,,0.00,Wunderground v.1.15,2013-05-27 19:09:00,
2013-05-27 14:14:00,84.9,66.4,29.93,West,275,6.0,9.0,54,0.00,,,0.00,Wunderground v.1.15,2013-05-27 19:14:00,
2013-05-27 14:19:00,85.1,66.0,29.93,West,267,6.0,9.0,53,0.00,,,0.00,Wunderground v.1.15,2013-05-27 19:19:00,
2013-05-27 14:24:00,85.5,67.0,29.93,West,264,5.0,8.0,54,0.00,,,0.00,Wunderground v.1.15,2013-05-27 19:24:00,
2013-05-27 14:30:00,85.1,65.5,29.93,WNW,283,5.0,5.0,52,0.00,,,0.00,Wunderground v.1.15,2013-05-27 19:30:00,
2013-05-27 14:35:00,84.7,65.7,29.92,SW,232,6.0,6.0,53,0.00,,,0.00,Wunderground v.1.15,2013-05-27 19:35:00,
2013-05-27 14:40:00,84.4,65.4,29.92,SSE,158,5.0,9.0,53,0.00,,,0.00,Wunderground v.1.15,2013-05-27 19:40:00,
2013-05-27 14:45:00,84.3,66.4,29.92,West,280,5.0,9.0,55,0.00,,,0.00,Wunderground v.1.15,2013-05-27 19:45:00,
2013-05-27 14:50:00,84.7,66.2,29.92,WSW,243,5.0,5.0,54,0.00,,,0.00,Wunderground v.1.15,2013-05-27 19:50:00,
2013-05-27 14:56:00,85.1,66.6,29.92,WSW,248,5.0,9.0,54,0.00,,,0.00,Wunderground v.1.15,2013-05-27 19:56:00,
2013-05-27 15:02:00,85.3,68.3,29.92,WSW,252,4.0,7.0,57,0.00,,,0.00,Wunderground v.1.15,2013-05-27 20:02:00,
2013-05-27 15:07:00,85.8,66.1,29.91,SSW,210,4.0,11.0,52,0.00,,,0.00,Wunderground v.1.15,2013-05-27 20:07:00,
2013-05-27 15:12:00,85.9,65.7,29.91,West,268,5.0,5.0,51,0.00,,,0.00,Wunderground v.1.15,2013-05-27 20:12:00,
2013-05-27 15:17:00,85.6,66.0,29.91,SSW,207,6.0,14.0,52,0.00,,,0.00,Wunderground v.1.15,2013-05-27 20:17:00,
2013-05-27 15:22:00,85.3,66.8,29.91,SW,217,5.0,8.0,54,0.00,,,0.00,Wunderground v.1.15,2013-05-27 20:22:00,
2013-05-27 15:28:00,85.4,65.8,29.90,West,269,4.0,8.0,52,0.00,,,0.00,Wunderground v.1.15,2013-05-27 20:28:00,
2013-05-27 15:33:00,85.1,64.4,29.90,SSW,204,5.0,6.0,50,0.00,,,0.00,Wunderground v.1.15,2013-05-27 20:33:00,
2013-05-27 15:38:00,84.8,64.7,29.90,SW,217,6.0,7.0,51,0.00,,,0.00,Wunderground v.1.15,2013-05-27 20:38:00,
2013-05-27 15:43:00,84.4,64.9,29.90,West,277,5.0,6.0,52,0.00,,,0.00,Wunderground v.1.15,2013-05-27 20:43:00,
2013-05-27 15:48:00,84.3,65.3,29.90,West,259,4.0,6.0,53,0.00,,,0.00,Wunderground v.1.15,2013-05-27 20:48:00,
2013-05-27 15:53:00,84.2,64.7,29.90,SW,215,3.0,6.0,52,0.00,,,0.00,Wunderground v.1.15,2013-05-27 20:53:00,
2013-05-27 15:59:00,84.0,64.5,29.90,SW,231,4.0,9.0,52,0.00,,,0.00,Wunderground v.1.15,2013-05-27 20:59:00,
2013-05-27 16:04:00,83.9,63.3,29.89,SSE,155,5.0,11.0,50,0.00,,,0.00,Wunderground v.1.15,2013-05-27 21:04:00,
2013-05-27 16:10:00,83.9,63.8,29.89,SSW,205,4.0,4.0,51,0.00,,,0.00,Wunderground v.1.15,2013-05-27 21:10:00,
2013-05-27 16:15:00,84.1,64.6,29.89,WSW,258,4.0,5.0,52,0.00,,,0.00,Wunderground v.1.15,2013-05-27 21:15:00,
2013-05-27 16:20:00,84.2,64.1,29.89,West,273,4.0,4.0,51,0.00,,,0.00,Wunderground v.1.15,2013-05-27 21:20:00,
2013-05-27 16:25:00,84.3,64.8,29.89,SW,226,3.0,4.0,52,0.00,,,0.00,Wunderground v.1.15,2013-05-27 21:25:00,
2013-05-27 16:31:00,84.1,63.5,29.89,WSW,238,4.0,6.0,50,0.00,,,0.00,Wunderground v.1.15,2013-05-27 21:31:00,
2013-05-27 16:36:00,83.8,63.2,29.89,SW,217,5.0,11.0,50,0.00,,,0.00,Wunderground v.1.15,2013-05-27 21:36:00,
2013-05-27 16:41:00,83.7,63.7,29.89,WNW,284,5.0,6.0,51,0.00,,,0.00,Wunderground v.1.15,2013-05-27 21:41:00,
2013-05-27 16:47:00,83.5,64.0,29.89,NNW,328,4.0,8.0,52,0.00,,,0.00,Wunderground v.1.15,2013-05-27 21:47:00,
2013-05-27 16:52:00,83.2,64.3,29.89,SW,231,4.0,6.0,53,0.00,,,0.00,Wunderground v.1.15,2013-05-27 21:52:00,
2013-05-27 16:57:00,83.0,64.6,29.89,WSW,245,4.0,11.0,54,0.00,,,0.00,Wunderground v.1.15,2013-05-27 21:57:00,
2013-05-27 17:03:00,82.7,63.8,29.89,SSW,196,5.0,7.0,53,0.00,,,0.00,Wunderground v.1.15,2013-05-27 22:03:00,
2013-05-27 17:08:00,82.6,63.7,29.89,SSE,158,4.0,7.0,53,0.00,,,0.00,Wunderground v.1.15,2013-05-27 22:08:00,
2013-05-27 17:13:00,82.3,63.5,29.89,West,278,4.0,5.0,53,0.00,,,0.00,Wunderground v.1.15,2013-05-27 22:13:00,
2013-05-27 17:19:00,82.2,63.4,29.89,SW,232,4.0,10.0,53,0.00,,,0.00,Wunderground v.1.15,2013-05-27 22:19:00,
2013-05-27 17:24:00,82.2,63.9,29.89,WNW,289,3.0,7.0,54,0.00,,,0.00,Wunderground v.1.15,2013-05-27 22:24:00,
2013-05-27 17:29:00,82.2,63.9,29.89,WSW,252,2.0,7.0,54,0.00,,,0.00,Wunderground v.1.15,2013-05-27 22:29:00,
2013-05-27 17:35:00,82.1,64.3,29.88,SE,134,2.0,4.0,55,0.00,,,0.00,Wunderground v.1.15,2013-05-27 22:35:00,
2013-05-27 17:40:00,81.9,64.7,29.89,SSW,201,2.0,2.0,56,0.00,,,0.00,Wunderground v.1.15,2013-05-27 22:40:00,
2013-05-27 17:45:00,81.6,64.4,29.88,WSW,255,3.0,8.0,56,0.00,,,0.00,Wunderground v.1.15,2013-05-27 22:45:00,
2013-05-27 17:50:00,81.6,64.9,29.89,WSW,241,2.0,2.0,57,0.00,,,0.00,Wunderground v.1.15,2013-05-27 22:50:00,
2013-05-27 17:56:00,81.3,65.1,29.89,SSW,194,2.0,3.0,58,0.00,,,0.00,Wunderground v.1.15,2013-05-27 22:56:00,
2013-05-27 18:01:00,81.2,65.5,29.88,WNW,287,2.0,4.0,59,0.00,,,0.00,Wunderground v.1.15,2013-05-27 23:01:00,
2013-05-27 18:06:00,81.2,66.0,29.88,WSW,255,3.0,4.0,60,0.00,,,0.00,Wunderground v.1.15,2013-05-27 23:06:00,
2013-05-27 18:11:00,81.2,66.5,29.88,SE,138,4.0,7.0,61,0.00,,,0.00,Wunderground v.1.15,2013-05-27 23:11:00,
2013-05-27 18:17:00,81.1,66.4,29.88,SSE,167,3.0,12.0,61,0.00,,,0.00,Wunderground v.1.15,2013-05-27 23:17:00,
2013-05-27 18:23:00,78.9,66.1,29.92,NW,304,7.0,29.0,65,0.00,,,0.00,Wunderground v.1.15,2013-05-27 23:23:00,
2013-05-27 18:28:00,72.1,65.9,29.92,WNW,293,17.0,29.0,81,0.00,,,0.01,Wunderground v.1.15,2013-05-27 23:28:00,
2013-05-27 18:33:00,69.3,65.9,29.92,WNW,294,19.0,23.0,89,0.14,,,0.02,Wunderground v.1.15,2013-05-27 23:33:00,
2013-05-27 18:41:00,68.4,65.7,29.94,WNW,283,13.0,13.0,91,0.20,,,0.04,Wunderground v.1.15,2013-05-27 23:41:00,
2013-05-27 18:46:00,68.0,65.6,29.94,WNW,295,10.0,13.0,92,0.24,,,0.09,Wunderground v.1.15,2013-05-27 23:46:00,
2013-05-27 18:51:00,67.8,65.7,29.94,West,262,6.0,7.0,93,0.11,,,0.09,Wunderground v.1.15,2013-05-27 23:51:00,
2013-05-27 18:56:00,67.8,65.7,29.93,West,269,4.0,7.0,93,0.06,,,0.09,Wunderground v.1.15,2013-05-27 23:56:00,
2013-05-27 19:02:00,67.8,65.7,29.93,WSW,253,3.0,5.0,93,0.04,,,0.09,Wunderground v.1.15,2013-05-28 00:02:00,
2013-05-27 19:07:00,67.8,65.7,29.93,WSW,250,3.0,5.0,93,0.00,,,0.09,Wunderground v.1.15,2013-05-28 00:07:00,
2013-05-27 19:13:00,67.7,65.3,29.92,West,280,2.0,3.0,92,0.00,,,0.10,Wunderground v.1.15,2013-05-28 00:13:00,
2013-05-27 19:18:00,67.4,65.0,29.91,WSW,240,1.0,3.0,92,0.00,,,0.10,Wunderground v.1.15,2013-05-28 00:18:00,
2013-05-27 19:23:00,67.3,65.2,29.91,WSW,253,0.0,1.0,93,0.00,,,0.10,Wunderground v.1.15,2013-05-28 00:23:00,
2013-05-27 19:28:00,67.1,65.0,29.91,WSW,240,0.0,1.0,93,0.00,,,0.10,Wunderground v.1.15,2013-05-28 00:28:00,
2013-05-27 19:34:00,66.9,64.8,29.90,SSE,162,1.0,3.0,93,0.00,,,0.11,Wunderground v.1.15,2013-05-28 00:34:00,
2013-05-27 19:39:00,66.8,64.7,29.89,SSW,210,1.0,4.0,93,0.00,,,0.11,Wunderground v.1.15,2013-05-28 00:39:00,
2013-05-27 19:45:00,66.6,64.5,29.88,WSW,255,1.0,5.0,93,0.00,,,0.11,Wunderground v.1.15,2013-05-28 00:45:00,
2013-05-27 19:50:00,66.6,64.5,29.88,SSW,203,1.0,5.0,93,0.00,,,0.12,Wunderground v.1.15,2013-05-28 00:50:00,
2013-05-27 19:57:00,66.6,64.5,29.86,SSW,212,3.0,3.0,93,0.13,,,0.13,Wunderground v.1.15,2013-05-28 00:57:00,
2013-05-27 20:03:00,66.6,64.5,29.85,SSW,195,3.0,5.0,93,0.07,,,0.13,Wunderground v.1.15,2013-05-28 01:03:00,
2013-05-27 20:09:00,66.6,64.5,29.84,ESE,117,3.0,6.0,93,0.06,,,0.14,Wunderground v.1.15,2013-05-28 01:09:00,
2013-05-27 20:14:00,66.5,64.4,29.83,SSE,155,2.0,4.0,93,0.06,,,0.14,Wunderground v.1.15,2013-05-28 01:14:00,
2013-05-27 20:19:00,66.4,64.3,29.82,SW,222,2.0,7.0,93,0.04,,,0.14,Wunderground v.1.15,2013-05-28 01:19:00,
2013-05-27 20:24:00,66.4,64.6,29.79,SSE,166,3.0,5.0,94,0.00,,,0.14,Wunderground v.1.15,2013-05-28 01:24:00,
2013-05-27 20:29:00,66.2,64.4,29.76,East,101,4.0,9.0,94,0.00,,,0.15,Wunderground v.1.15,2013-05-28 01:29:00,
2013-05-27 20:34:00,66.2,64.4,29.76,WNW,295,5.0,9.0,94,0.00,,,0.15,Wunderground v.1.15,2013-05-28 01:34:00,
2013-05-27 20:40:00,66.4,64.3,29.80,West,274,5.0,10.0,93,0.00,,,0.15,Wunderground v.1.15,2013-05-28 01:40:00,
2013-05-27 20:45:00,66.6,64.5,29.82,NNE,19,4.0,10.0,93,0.00,,,0.15,Wunderground v.1.15,2013-05-28 01:45:00,
2013-05-27 20:51:00,66.8,64.4,29.82,West,274,3.0,3.0,92,0.00,,,0.15,Wunderground v.1.15,2013-05-28 01:51:00,
2013-05-27 20:56:00,66.9,64.5,29.84,WSW,245,2.0,3.0,92,0.00,,,0.15,Wunderground v.1.15,2013-05-28 01:56:00,
2013-05-27 21:01:00,66.9,64.5,29.85,SSW,211,1.0,3.0,92,0.00,,,0.15,Wunderground v.1.15,2013-05-28 02:01:00,
2013-05-27 21:06:00,67.0,64.6,29.86,WSW,241,1.0,3.0,92,0.00,,,0.15,Wunderground v.1.15,2013-05-28 02:06:00,
2013-05-27 21:12:00,66.9,64.5,29.87,East,79,0.0,0.0,92,0.00,,,0.15,Wunderground v.1.15,2013-05-28 02:12:00,
2013-05-27 21:17:00,66.9,64.5,29.88,NE,41,0.0,1.0,92,0.00,,,0.15,Wunderground v.1.15,2013-05-28 02:17:00,
2013-05-27 21:22:00,66.9,64.5,29.88,SE,135,0.0,0.0,92,0.00,,,0.15,Wunderground v.1.15,2013-05-28 02:22:00,
2013-05-27 21:27:00,66.6,64.2,29.88,SSE,153,0.0,2.0,92,0.00,,,0.15,Wunderground v.1.15,2013-05-28 02:27:00,
2013-05-27 21:32:00,66.4,64.3,29.89,South,173,0.0,0.0,93,0.00,,,0.15,Wunderground v.1.15,2013-05-28 02:32:00,
2013-05-27 21:37:00,66.3,64.2,29.89,ESE,102,0.0,0.0,93,0.00,,,0.15,Wunderground v.1.15,2013-05-28 02:37:00,
2013-05-27 21:42:00,66.2,64.4,29.89,NW,323,0.0,0.0,94,0.00,,,0.15,Wunderground v.1.15,2013-05-28 02:42:00,
2013-05-27 21:47:00,66.2,64.4,29.89,WSW,249,0.0,0.0,94,0.00,,,0.15,Wunderground v.1.15,2013-05-28 02:47:00,
2013-05-27 21:52:00,66.1,64.3,29.89,ESE,110,0.0,0.0,94,0.00,,,0.15,Wunderground v.1.15,2013-05-28 02:52:00,
2013-05-27 21:57:00,66.0,64.2,29.89,East,83,0.0,0.0,94,0.00,,,0.15,Wunderground v.1.15,2013-05-28 02:57:00,
2013-05-27 22:03:00,66.0,64.2,29.90,ENE,72,0.0,0.0,94,0.00,,,0.15,Wunderground v.1.15,2013-05-28 03:03:00,
2013-05-27 22:09:00,65.8,64.0,29.90,SE,143,0.0,0.0,94,0.00,,,0.15,Wunderground v.1.15,2013-05-28 03:09:00,
2013-05-27 22:14:00,65.7,63.9,29.90,SE,129,0.0,0.0,94,0.00,,,0.15,Wunderground v.1.15,2013-05-28 03:14:00,
2013-05-27 22:19:00,65.7,64.2,29.90,WNW,285,0.0,0.0,95,0.00,,,0.15,Wunderground v.1.15,2013-05-28 03:19:00,
2013-05-27 22:25:00,65.6,64.1,29.90,ESE,107,0.0,2.0,95,0.00,,,0.15,Wunderground v.1.15,2013-05-28 03:25:00,
2013-05-27 22:30:00,65.5,64.0,29.90,East,91,0.0,0.0,95,0.00,,,0.15,Wunderground v.1.15,2013-05-28 03:30:00,
2013-05-27 22:35:00,65.5,64.0,29.90,SE,134,0.0,0.0,95,0.00,,,0.15,Wunderground v.1.15,2013-05-28 03:35:00,
2013-05-27 22:40:00,65.4,63.9,29.90,East,88,0.0,0.0,95,0.00,,,0.15,Wunderground v.1.15,2013-05-28 03:40:00,
2013-05-27 22:45:00,65.3,63.8,29.90,East,87,0.0,0.0,95,0.00,,,0.15,Wunderground v.1.15,2013-05-28 03:45:00,
2013-05-27 22:51:00,65.0,63.5,29.90,East,87,0.0,0.0,95,0.00,,,0.15,Wunderground v.1.15,2013-05-28 03:51:00,
2013-05-27 22:56:00,65.0,63.5,29.90,ESE,103,0.0,0.0,95,0.00,,,0.15,Wunderground v.1.15,2013-05-28 03:56:00,
2013-05-27 23:01:00,65.0,63.5,29.90,East,82,0.0,0.0,95,0.00,,,0.15,Wunderground v.1.15,2013-05-28 04:01:00,
2013-05-27 23:02:00,64.9,63.4,29.90,East,82,0.0,0.0,95,0.00,,,0.15,Wunderground v.1.15,2013-05-28 04:02:00,
2013-05-27 23:03:00,64.9,63.4,29.90,East,82,0.0,0.0,95,0.00,,,0.15,Wunderground v.1.15,2013-05-28 04:03:00,
2013-05-27 23:06:00,64.8,63.3,29.90,East,97,0.0,0.0,95,0.00,,,0.15,Wunderground v.1.15,2013-05-28 04:06:00,
2013-05-27 23:11:00,64.7,63.5,29.90,ESE,112,0.0,0.0,96,0.00,,,0.15,Wunderground v.1.15,2013-05-28 04:11:00,
2013-05-27 23:14:00,64.8,63.6,29.90,ESE,112,0.0,0.0,96,0.00,,,0.15,Wunderground v.1.15,2013-05-28 04:14:00,
2013-05-27 23:19:00,64.8,63.6,29.90,ENE,77,0.0,2.0,96,0.00,,,0.15,Wunderground v.1.15,2013-05-28 04:19:00,
2013-05-27 23:24:00,64.8,63.6,29.90,ESE,106,0.0,1.0,96,0.00,,,0.15,Wunderground v.1.15,2013-05-28 04:24:00,
2013-05-27 23:29:00,64.9,63.7,29.91,SE,131,0.0,1.0,96,0.00,,,0.15,Wunderground v.1.15,2013-05-28 04:29:00,
2013-05-27 23:34:00,64.8,63.6,29.91,SE,134,0.0,0.0,96,0.00,,,0.15,Wunderground v.1.15,2013-05-28 04:34:00,
2013-05-27 23:39:00,64.9,63.7,29.91,West,264,0.0,0.0,96,0.00,,,0.15,Wunderground v.1.15,2013-05-28 04:39:00,
2013-05-27 23:44:00,65.1,63.9,29.91,East,80,0.0,0.0,96,0.00,,,0.15,Wunderground v.1.15,2013-05-28 04:44:00,
2013-05-27 23:49:00,65.2,64.0,29.91,SSE,149,0.0,0.0,96,0.00,,,0.15,Wunderground v.1.15,2013-05-28 04:49:00,
2013-05-27 23:54:00,65.3,64.1,29.91,South,188,0.0,0.0,96,0.00,,,0.15,Wunderground v.1.15,2013-05-28 04:54:00,
2013-05-27 23:59:00,65.3,64.1,29.91,South,188,0.0,0.0,96,0.00,,,0.15,Wunderground v.1.15,2013-05-28 04:59:00,